Time,TemperatureF,DewpointF,PressureIn,WindDirection,WindDirectionDegrees,WindSpeedMPH,WindSpeedGustMPH,Humidity,HourlyPrecipIn,Conditions,Clouds,dailyrainin,SoftwareType,DateUTC
2013-02-10 00:04:00,28.0,0.0,30.00,ESE,106,3.0,3.0,62,-99.99,,,-99.99,,2013-02-10 08:04:00,
2013-02-10 00:12:00,28.0,0.0,30.00,ENE,73,3.0,3.0,59,-99.99,,,-99.99,,2013-02-10 08:12:00,
2013-02-10 00:20:00,28.0,0.0,30.00,WSW,258,1.0,2.0,59,-99.99,,,-99.99,,2013-02-10 08:20:00,
2013-02-10 00:28:00,27.0,0.0,30.00,NNW,345,1.0,1.0,61,-99.99,,,-99.99,,2013-02-10 08:28:00,
2013-02-10 00:36:00,26.0,0.0,30.00,WNW,296,3.0,3.0,63,-99.99,,,-99.99,,2013-02-10 08:36:00,
2013-02-10 00:44:00,26.0,0.0,30.00,WNW,301,1.0,1.0,61,-99.99,,,-99.99,,2013-02-10 08:44:00,
2013-02-10 00:52:00,25.0,0.0,30.00,NW,324,3.0,3.0,61,-99.99,,,-99.99,,2013-02-10 08:52:00,
2013-02-10 01:00:00,26.0,0.0,30.00,WNW,293,0.0,2.0,65,-99.99,,,-99.99,,2013-02-10 09:00:00,
2013-02-10 01:08:00,26.0,0.0,30.00,ENE,74,1.0,1.0,63,-99.99,,,-99.99,,2013-02-10 09:08:00,
2013-02-10 01:16:00,26.0,0.0,30.00,WNW,284,2.0,2.0,60,-99.99,,,-99.99,,2013-02-10 09:16:00,
2013-02-10 01:24:00,25.0,0.0,30.00,SW,222,0.0,1.0,61,-99.99,,,-99.99,,2013-02-10 09:24:00,
2013-02-10 01:32:00,24.0,0.0,30.00,South,177,3.0,3.0,61,-99.99,,,-99.99,,2013-02-10 09:32:00,
2013-02-10 01:40:00,26.0,0.0,29.99,SW,229,1.0,1.0,67,-99.99,,,-99.99,,2013-02-10 09:40:00,
2013-02-10 01:48:00,25.0,0.0,30.00,East,80,1.0,1.0,61,-99.99,,,-99.99,,2013-02-10 09:48:00,
2013-02-10 01:56:00,25.0,0.0,29.99,East,92,0.0,0.0,69,-99.99,,,-99.99,,2013-02-10 09:56:00,
2013-02-10 02:04:00,26.0,0.0,29.99,WSW,252,0.0,1.0,61,-99.99,,,-99.99,,2013-02-10 10:04:00,
2013-02-10 02:12:00,25.0,0.0,29.99,WSW,253,0.0,0.0,63,-99.99,,,-99.99,,2013-02-10 10:12:00,
2013-02-10 02:20:00,22.0,0.0,29.99,NW,310,3.0,3.0,63,-99.99,,,-99.99,,2013-02-10 10:20:00,
2013-02-10 02:28:00,23.0,0.0,29.99,WNW,301,0.0,0.0,65,-99.99,,,-99.99,,2013-02-10 10:28:00,
2013-02-10 02:36:00,24.0,0.0,29.99,WNW,301,0.0,0.0,61,-99.99,,,-99.99,,2013-02-10 10:36:00,
2013-02-10 02:44:00,26.0,0.0,29.99,SSW,206,0.0,0.0,66,-99.99,,,-99.99,,2013-02-10 10:44:00,
2013-02-10 02:52:00,24.0,0.0,29.99,WNW,282,1.0,2.0,66,-99.99,,,-99.99,,2013-02-10 10:52:00,
2013-02-10 03:00:00,0.0,0.0,-0.01,North,0,0.0,0.0,0,-99.99,,,-99.99,,2013-02-10 11:00:00,
2013-02-10 03:08:00,0.0,0.0,-0.01,North,0,0.0,0.0,0,-99.99,,,-99.99,,2013-02-10 11:08:00,
2013-02-10 03:16:00,23.0,0.0,29.99,NNW,334,2.0,2.0,67,-99.99,,,-99.99,,2013-02-10 11:16:00,
2013-02-10 03:24:00,22.0,0.0,29.99,NW,317,5.0,5.0,64,-99.99,,,-99.99,,2013-02-10 11:24:00,
2013-02-10 03:32:00,21.0,0.0,29.99,NW,314,5.0,6.0,69,-99.99,,,-99.99,,2013-02-10 11:32:00,
2013-02-10 03:40:00,21.0,0.0,29.99,NNE,16,5.0,6.0,68,-99.99,,,-99.99,,2013-02-10 11:40:00,
2013-02-10 03:48:00,22.0,0.0,29.99,NNE,14,5.0,5.0,73,-99.99,,,-99.99,,2013-02-10 11:48:00,
2013-02-10 03:56:00,22.0,0.0,29.99,NNE,21,2.0,3.0,68,-99.99,,,-99.99,,2013-02-10 11:56:00,
2013-02-10 04:04:00,23.0,0.0,29.99,NW,324,1.0,1.0,66,-99.99,,,-99.99,,2013-02-10 12:04:00,
2013-02-10 04:12:00,0.0,0.0,-0.01,North,0,0.0,0.0,0,-99.99,,,-99.99,,2013-02-10 12:12:00,
2013-02-10 04:20:00,22.0,0.0,29.99,NNW,342,3.0,3.0,67,-99.99,,,-99.99,,2013-02-10 12:20:00,
2013-02-10 04:28:00,22.0,0.0,30.00,NNE,15,2.0,2.0,66,-99.99,,,-99.99,,2013-02-10 12:28:00,
2013-02-10 04:36:00,20.0,0.0,30.00,NNE,30,3.0,3.0,67,-99.99,,,-99.99,,2013-02-10 12:36:00,
2013-02-10 04:44:00,21.0,0.0,30.00,WNW,289,0.0,0.0,70,-99.99,,,-99.99,,2013-02-10 12:44:00,
2013-02-10 04:52:00,22.0,0.0,30.00,ENE,62,2.0,2.0,68,-99.99,,,-99.99,,2013-02-10 12:52:00,
2013-02-10 05:00:00,23.0,0.0,30.00,ENE,69,2.0,2.0,71,-99.99,,,-99.99,,2013-02-10 13:00:00,
2013-02-10 05:08:00,23.0,0.0,30.00,ENE,69,0.0,0.0,69,-99.99,,,-99.99,,2013-02-10 13:08:00,
2013-02-10 05:16:00,21.0,0.0,30.00,WSW,241,5.0,5.0,66,-99.99,,,-99.99,,2013-02-10 13:16:00,
2013-02-10 05:24:00,20.0,0.0,30.01,West,268,5.0,6.0,68,-99.99,,,-99.99,,2013-02-10 13:24:00,
2013-02-10 05:32:00,20.0,0.0,30.01,West,259,5.0,6.0,67,-99.99,,,-99.99,,2013-02-10 13:32:00,
2013-02-10 05:40:00,21.0,0.0,30.00,West,280,3.0,3.0,67,-99.99,,,-99.99,,2013-02-10 13:40:00,
2013-02-10 05:48:00,22.0,0.0,30.01,West,274,2.0,2.0,68,-99.99,,,-99.99,,2013-02-10 13:48:00,
2013-02-10 05:56:00,23.0,0.0,30.00,South,187,2.0,2.0,68,-99.99,,,-99.99,,2013-02-10 13:56:00,
2013-02-10 06:04:00,22.0,0.0,30.00,South,176,2.0,2.0,66,-99.99,,,-99.99,,2013-02-10 14:04:00,
2013-02-10 06:12:00,23.0,0.0,30.00,SSW,204,3.0,3.0,67,-99.99,,,-99.99,,2013-02-10 14:12:00,
2013-02-10 06:20:00,24.0,0.0,30.00,SW,220,2.0,3.0,72,-99.99,,,-99.99,,2013-02-10 14:20:00,
2013-02-10 06:28:00,23.0,0.0,30.00,SSE,164,2.0,2.0,63,-99.99,,,-99.99,,2013-02-10 14:28:00,
2013-02-10 06:36:00,22.0,0.0,30.01,South,178,2.0,3.0,65,-99.99,,,-99.99,,2013-02-10 14:36:00,
2013-02-10 06:44:00,22.0,0.0,30.01,SSW,213,3.0,3.0,68,-99.99,,,-99.99,,2013-02-10 14:44:00,
2013-02-10 06:52:00,21.0,0.0,30.01,SW,226,3.0,3.0,68,-99.99,,,-99.99,,2013-02-10 14:52:00,
2013-02-10 07:00:00,22.0,0.0,30.01,SW,215,2.0,3.0,72,-99.99,,,-99.99,,2013-02-10 15:00:00,
2013-02-10 07:08:00,21.0,0.0,30.02,WSW,237,0.0,1.0,66,-99.99,,,-99.99,,2013-02-10 15:08:00,
2013-02-10 07:16:00,22.0,0.0,30.01,WSW,256,0.0,0.0,67,-99.99,,,-99.99,,2013-02-10 15:16:00,
2013-02-10 07:24:00,24.0,0.0,30.02,NE,53,2.0,2.0,62,-99.99,,,-99.99,,2013-02-10 15:24:00,
2013-02-10 07:32:00,25.0,0.0,30.02,NNE,21,5.0,5.0,63,-99.99,,,-99.99,,2013-02-10 15:32:00,
2013-02-10 07:40:00,26.0,0.0,30.02,NNE,22,1.0,2.0,62,-99.99,,,-99.99,,2013-02-10 15:40:00,
2013-02-10 07:48:00,28.0,0.0,30.02,NNE,15,1.0,2.0,61,-99.99,,,-99.99,,2013-02-10 15:48:00,
2013-02-10 07:56:00,30.0,0.0,30.02,SSE,150,2.0,2.0,56,-99.99,,,-99.99,,2013-02-10 15:56:00,
2013-02-10 08:04:00,30.0,0.0,30.02,NNW,340,1.0,1.0,54,-99.99,,,-99.99,,2013-02-10 16:04:00,
2013-02-10 08:12:00,31.0,0.0,30.02,NE,42,0.0,0.0,54,-99.99,,,-99.99,,2013-02-10 16:12:00,
2013-02-10 08:20:00,32.0,0.0,30.02,East,79,1.0,1.0,53,-99.99,,,-99.99,,2013-02-10 16:20:00,
2013-02-10 08:28:00,34.0,0.0,30.02,SSE,148,1.0,1.0,54,-99.99,,,-99.99,,2013-02-10 16:28:00,
2013-02-10 08:36:00,34.0,0.0,30.03,SE,130,1.0,1.0,50,-99.99,,,-99.99,,2013-02-10 16:36:00,
2013-02-10 08:44:00,36.0,0.0,30.03,ESE,111,1.0,1.0,48,-99.99,,,-99.99,,2013-02-10 16:44:00,
2013-02-10 08:52:00,36.0,0.0,30.03,South,177,1.0,1.0,49,-99.99,,,-99.99,,2013-02-10 16:52:00,
2013-02-10 09:00:00,38.0,0.0,30.03,SSE,164,2.0,2.0,46,-99.99,,,-99.99,,2013-02-10 17:00:00,
2013-02-10 09:08:00,39.0,0.0,30.03,SE,146,3.0,3.0,45,-99.99,,,-99.99,,2013-02-10 17:08:00,
2013-02-10 09:16:00,40.0,0.0,30.03,ESE,123,2.0,3.0,44,-99.99,,,-99.99,,2013-02-10 17:16:00,
2013-02-10 09:24:00,41.0,0.0,30.03,SSE,150,3.0,3.0,44,-99.99,,,-99.99,,2013-02-10 17:24:00,
2013-02-10 09:32:00,41.0,0.0,30.03,ESE,119,3.0,3.0,41,-99.99,,,-99.99,,2013-02-10 17:32:00,
2013-02-10 09:40:00,42.0,0.0,30.03,SE,134,5.0,5.0,40,-99.99,,,-99.99,,2013-02-10 17:40:00,
2013-02-10 09:48:00,42.0,0.0,30.03,SSE,153,6.0,6.0,38,-99.99,,,-99.99,,2013-02-10 17:48:00,
2013-02-10 09:56:00,44.0,0.0,30.03,South,169,6.0,6.0,36,-99.99,,,-99.99,,2013-02-10 17:56:00,
2013-02-10 10:04:00,45.0,0.0,30.03,South,171,9.0,9.0,35,-99.99,,,-99.99,,2013-02-10 18:04:00,
2013-02-10 10:12:00,46.0,0.0,30.03,SSE,156,6.0,6.0,35,-99.99,,,-99.99,,2013-02-10 18:12:00,
2013-02-10 10:20:00,46.0,0.0,30.03,SSE,150,7.0,8.0,36,-99.99,,,-99.99,,2013-02-10 18:20:00,
2013-02-10 10:28:00,47.0,0.0,30.03,South,190,6.0,7.0,33,-99.99,,,-99.99,,2013-02-10 18:28:00,
2013-02-10 10:36:00,48.0,0.0,30.02,South,191,8.0,8.0,30,-99.99,,,-99.99,,2013-02-10 18:36:00,
2013-02-10 10:44:00,48.0,0.0,30.02,SW,234,1.0,6.0,30,-99.99,,,-99.99,,2013-02-10 18:44:00,
2013-02-10 10:52:00,50.0,0.0,30.01,SW,229,7.0,7.0,28,-99.99,,,-99.99,,2013-02-10 18:52:00,
2013-02-10 11:00:00,49.0,0.0,30.01,SW,218,8.0,9.0,27,-99.99,,,-99.99,,2013-02-10 19:00:00,
2013-02-10 11:08:00,50.0,0.0,30.01,South,181,7.0,8.0,28,-99.99,,,-99.99,,2013-02-10 19:08:00,
2013-02-10 11:16:00,51.0,0.0,30.00,South,183,5.0,7.0,27,-99.99,,,-99.99,,2013-02-10 19:16:00,
2013-02-10 11:24:00,52.0,0.0,30.00,WSW,240,0.0,5.0,26,-99.99,,,-99.99,,2013-02-10 19:24:00,
2013-02-10 11:32:00,51.0,0.0,30.00,SW,214,5.0,5.0,25,-99.99,,,-99.99,,2013-02-10 19:32:00,
2013-02-10 11:40:00,52.0,0.0,29.99,WSW,250,3.0,3.0,26,-99.99,,,-99.99,,2013-02-10 19:40:00,
2013-02-10 11:48:00,53.0,0.0,29.99,SSE,162,3.0,3.0,25,-99.99,,,-99.99,,2013-02-10 19:48:00,
2013-02-10 11:56:00,52.0,0.0,29.98,SSE,151,8.0,8.0,26,-99.99,,,-99.99,,2013-02-10 19:56:00,
2013-02-10 12:04:00,53.0,0.0,29.97,SSE,154,6.0,6.0,26,-99.99,,,-99.99,,2013-02-10 20:04:00,
2013-02-10 12:12:00,53.0,0.0,29.96,SW,227,3.0,5.0,24,-99.99,,,-99.99,,2013-02-10 20:12:00,
2013-02-10 12:20:00,54.0,0.0,29.96,West,266,3.0,5.0,25,-99.99,,,-99.99,,2013-02-10 20:20:00,
2013-02-10 12:28:00,57.0,0.0,29.95,North,1,1.0,1.0,23,-99.99,,,-99.99,,2013-02-10 20:28:00,
2013-02-10 12:36:00,56.0,0.0,29.95,West,264,10.0,10.0,23,-99.99,,,-99.99,,2013-02-10 20:36:00,
2013-02-10 12:44:00,54.0,0.0,29.94,South,187,3.0,5.0,22,-99.99,,,-99.99,,2013-02-10 20:44:00,
2013-02-10 12:52:00,57.0,0.0,29.94,NNE,30,2.0,2.0,21,-99.99,,,-99.99,,2013-02-10 20:52:00,
2013-02-10 13:00:00,55.0,0.0,29.93,East,81,5.0,5.0,24,-99.99,,,-99.99,,2013-02-10 21:00:00,
2013-02-10 13:08:00,57.0,0.0,29.93,ESE,123,1.0,1.0,22,-99.99,,,-99.99,,2013-02-10 21:08:00,
2013-02-10 13:16:00,58.0,0.0,29.93,ENE,71,5.0,6.0,21,-99.99,,,-99.99,,2013-02-10 21:16:00,
2013-02-10 13:24:00,56.0,0.0,29.92,ENE,73,0.0,2.0,21,-99.99,,,-99.99,,2013-02-10 21:24:00,
2013-02-10 13:32:00,57.0,0.0,29.92,NW,307,3.0,5.0,23,-99.99,,,-99.99,,2013-02-10 21:32:00,
2013-02-10 13:40:00,58.0,0.0,29.91,SW,227,2.0,2.0,21,-99.99,,,-99.99,,2013-02-10 21:40:00,
2013-02-10 13:48:00,59.0,0.0,29.91,WSW,240,2.0,3.0,18,-99.99,,,-99.99,,2013-02-10 21:48:00,
2013-02-10 13:56:00,58.0,0.0,29.91,NW,320,5.0,5.0,21,-99.99,,,-99.99,,2013-02-10 21:56:00,
2013-02-10 14:04:00,60.0,0.0,29.90,SSW,212,2.0,3.0,19,-99.99,,,-99.99,,2013-02-10 22:04:00,
2013-02-10 14:12:00,59.0,0.0,29.90,SW,224,7.0,7.0,17,-99.99,,,-99.99,,2013-02-10 22:12:00,
2013-02-10 14:20:00,57.0,0.0,29.90,WNW,298,12.0,12.0,20,-99.99,,,-99.99,,2013-02-10 22:20:00,
2013-02-10 14:28:00,57.0,0.0,29.89,WSW,258,5.0,5.0,18,-99.99,,,-99.99,,2013-02-10 22:28:00,
2013-02-10 14:36:00,58.0,0.0,29.89,WNW,282,5.0,6.0,20,-99.99,,,-99.99,,2013-02-10 22:36:00,
2013-02-10 14:44:00,58.0,0.0,29.89,SSW,204,2.0,3.0,17,-99.99,,,-99.99,,2013-02-10 22:44:00,
2013-02-10 14:52:00,59.0,0.0,29.89,SW,215,2.0,2.0,20,-99.99,,,-99.99,,2013-02-10 22:52:00,
2013-02-10 15:00:00,59.0,0.0,29.89,WNW,282,5.0,5.0,17,-99.99,,,-99.99,,2013-02-10 23:00:00,
2013-02-10 15:08:00,58.0,0.0,29.89,NW,325,6.0,8.0,18,-99.99,,,-99.99,,2013-02-10 23:08:00,
2013-02-10 15:16:00,57.0,0.0,29.89,SW,235,3.0,3.0,20,-99.99,,,-99.99,,2013-02-10 23:16:00,
2013-02-10 15:24:00,57.0,0.0,29.89,WNW,286,3.0,3.0,19,-99.99,,,-99.99,,2013-02-10 23:24:00,
2013-02-10 15:32:00,57.0,0.0,29.89,WSW,239,7.0,7.0,18,-99.99,,,-99.99,,2013-02-10 23:32:00,
2013-02-10 15:40:00,57.0,0.0,29.89,WSW,248,6.0,6.0,21,-99.99,,,-99.99,,2013-02-10 23:40:00,
2013-02-10 15:48:00,57.0,0.0,29.89,WNW,291,8.0,8.0,21,-99.99,,,-99.99,,2013-02-10 23:48:00,
2013-02-10 15:56:00,56.0,0.0,29.89,SSW,204,2.0,2.0,19,-99.99,,,-99.99,,2013-02-10 23:56:00,
2013-02-10 16:04:00,56.0,0.0,29.88,WSW,246,7.0,8.0,22,-99.99,,,-99.99,,2013-02-11 00:04:00,
2013-02-10 16:12:00,56.0,0.0,29.88,SW,214,9.0,9.0,22,-99.99,,,-99.99,,2013-02-11 00:12:00,
2013-02-10 16:20:00,56.0,0.0,29.88,WSW,244,6.0,6.0,20,-99.99,,,-99.99,,2013-02-11 00:20:00,
2013-02-10 16:28:00,56.0,0.0,29.88,WSW,239,8.0,9.0,20,-99.99,,,-99.99,,2013-02-11 00:28:00,
2013-02-10 16:36:00,56.0,0.0,29.89,South,185,3.0,7.0,20,-99.99,,,-99.99,,2013-02-11 00:36:00,
2013-02-10 16:44:00,55.0,0.0,29.89,SSW,209,8.0,9.0,22,-99.99,,,-99.99,,2013-02-11 00:44:00,
2013-02-10 16:52:00,55.0,0.0,29.89,SSW,204,8.0,8.0,20,-99.99,,,-99.99,,2013-02-11 00:52:00,
2013-02-10 17:00:00,55.0,0.0,29.89,SW,221,6.0,6.0,20,-99.99,,,-99.99,,2013-02-11 01:00:00,
2013-02-10 17:08:00,55.0,0.0,29.88,SW,216,6.0,6.0,21,-99.99,,,-99.99,,2013-02-11 01:08:00,
2013-02-10 17:16:00,55.0,0.0,29.89,SW,217,7.0,7.0,22,-99.99,,,-99.99,,2013-02-11 01:16:00,
2013-02-10 17:24:00,55.0,0.0,29.89,SSE,163,2.0,2.0,20,-99.99,,,-99.99,,2013-02-11 01:24:00,
2013-02-10 17:32:00,54.0,0.0,29.89,SE,124,2.0,2.0,20,-99.99,,,-99.99,,2013-02-11 01:32:00,
2013-02-10 17:40:00,53.0,0.0,29.89,SE,136,10.0,10.0,23,-99.99,,,-99.99,,2013-02-11 01:40:00,
2013-02-10 17:48:00,52.0,0.0,29.89,SE,141,10.0,10.0,24,-99.99,,,-99.99,,2013-02-11 01:48:00,
2013-02-10 17:56:00,53.0,0.0,29.89,ESE,119,8.0,8.0,22,-99.99,,,-99.99,,2013-02-11 01:56:00,
2013-02-10 18:04:00,54.0,0.0,29.90,SSE,166,5.0,6.0,21,-99.99,,,-99.99,,2013-02-11 02:04:00,
2013-02-10 18:12:00,52.0,0.0,29.91,SSW,192,6.0,6.0,22,-99.99,,,-99.99,,2013-02-11 02:12:00,
2013-02-10 18:20:00,52.0,0.0,29.91,SE,141,6.0,7.0,24,-99.99,,,-99.99,,2013-02-11 02:20:00,
2013-02-10 18:28:00,52.0,0.0,29.91,South,186,7.0,7.0,24,-99.99,,,-99.99,,2013-02-11 02:28:00,
2013-02-10 18:36:00,52.0,0.0,29.91,South,190,3.0,6.0,26,-99.99,,,-99.99,,2013-02-11 02:36:00,
2013-02-10 18:44:00,52.0,0.0,29.91,South,172,7.0,7.0,28,-99.99,,,-99.99,,2013-02-11 02:44:00,
2013-02-10 18:52:00,51.0,0.0,29.92,SSW,192,3.0,3.0,32,-99.99,,,-99.99,,2013-02-11 02:52:00,
2013-02-10 19:00:00,51.0,0.0,29.92,SE,140,7.0,7.0,31,-99.99,,,-99.99,,2013-02-11 03:00:00,
2013-02-10 19:08:00,50.0,0.0,29.94,ENE,74,9.0,9.0,31,-99.99,,,-99.99,,2013-02-11 03:08:00,
2013-02-10 19:16:00,49.0,0.0,29.94,East,96,6.0,6.0,31,-99.99,,,-99.99,,2013-02-11 03:16:00,
2013-02-10 19:24:00,49.0,0.0,29.94,ESE,114,7.0,7.0,37,-99.99,,,-99.99,,2013-02-11 03:24:00,
2013-02-10 19:32:00,49.0,0.0,29.95,SE,124,10.0,10.0,34,-99.99,,,-99.99,,2013-02-11 03:32:00,
2013-02-10 19:40:00,50.0,0.0,29.95,ESE,115,9.0,9.0,31,-99.99,,,-99.99,,2013-02-11 03:40:00,
2013-02-10 19:48:00,51.0,0.0,29.96,ESE,120,10.0,10.0,27,-99.99,,,-99.99,,2013-02-11 03:48:00,
2013-02-10 19:56:00,50.0,0.0,29.96,East,94,7.0,8.0,28,-99.99,,,-99.99,,2013-02-11 03:56:00,
2013-02-10 20:04:00,50.0,0.0,29.97,East,82,6.0,7.0,29,-99.99,,,-99.99,,2013-02-11 04:04:00,
2013-02-10 20:12:00,49.0,0.0,29.97,NE,44,7.0,7.0,30,-99.99,,,-99.99,,2013-02-11 04:12:00,
2013-02-10 20:20:00,49.0,0.0,29.97,NE,47,8.0,8.0,31,-99.99,,,-99.99,,2013-02-11 04:20:00,
2013-02-10 20:28:00,48.0,0.0,29.98,NE,41,8.0,8.0,31,-99.99,,,-99.99,,2013-02-11 04:28:00,
2013-02-10 20:36:00,48.0,0.0,29.98,NNE,30,14.0,14.0,32,-99.99,,,-99.99,,2013-02-11 04:36:00,
2013-02-10 20:44:00,48.0,0.0,29.98,NE,43,10.0,15.0,31,-99.99,,,-99.99,,2013-02-11 04:44:00,
2013-02-10 20:52:00,48.0,0.0,29.99,NE,53,12.0,12.0,35,-99.99,,,-99.99,,2013-02-11 04:52:00,
2013-02-10 21:00:00,48.0,0.0,29.99,ENE,63,8.0,9.0,32,-99.99,,,-99.99,,2013-02-11 05:00:00,
2013-02-10 21:04:00,47.0,0.0,30.00,ENE,58,9.0,9.0,37,-99.99,,,-99.99,,2013-02-11 05:04:00,
2013-02-10 21:12:00,46.0,0.0,30.00,ENE,59,6.0,8.0,34,-99.99,,,-99.99,,2013-02-11 05:12:00,
2013-02-10 21:16:00,46.0,0.0,30.00,NE,48,5.0,6.0,37,-99.99,,,-99.99,,2013-02-11 05:16:00,
2013-02-10 21:24:00,44.0,0.0,30.00,NE,44,5.0,5.0,35,-99.99,,,-99.99,,2013-02-11 05:24:00,
2013-02-10 21:32:00,45.0,0.0,30.00,NE,34,3.0,7.0,34,-99.99,,,-99.99,,2013-02-11 05:32:00,
2013-02-10 21:40:00,45.0,0.0,30.00,North,8,5.0,5.0,36,-99.99,,,-99.99,,2013-02-11 05:40:00,
2013-02-10 21:48:00,44.0,0.0,30.00,NNW,344,6.0,6.0,33,-99.99,,,-99.99,,2013-02-11 05:48:00,
2013-02-10 21:56:00,44.0,0.0,30.00,North,361,6.0,7.0,34,-99.99,,,-99.99,,2013-02-11 05:56:00,
2013-02-10 22:04:00,42.0,0.0,30.01,North,356,6.0,7.0,35,-99.99,,,-99.99,,2013-02-11 06:04:00,
2013-02-10 22:12:00,42.0,0.0,30.01,North,361,5.0,5.0,33,-99.99,,,-99.99,,2013-02-11 06:12:00,
2013-02-10 22:20:00,42.0,0.0,30.01,North,361,6.0,6.0,34,-99.99,,,-99.99,,2013-02-11 06:20:00,
2013-02-10 22:28:00,41.0,0.0,30.01,North,358,3.0,3.0,37,-99.99,,,-99.99,,2013-02-11 06:28:00,
2013-02-10 22:36:00,42.0,0.0,30.01,NNE,25,7.0,7.0,32,-99.99,,,-99.99,,2013-02-11 06:36:00,
2013-02-10 22:44:00,42.0,0.0,30.01,North,361,6.0,7.0,30,-99.99,,,-99.99,,2013-02-11 06:44:00,
2013-02-10 22:52:00,43.0,0.0,30.01,North,1,8.0,8.0,29,-99.99,,,-99.99,,2013-02-11 06:52:00,
2013-02-10 23:00:00,42.0,0.0,30.01,NNE,24,8.0,8.0,31,-99.99,,,-99.99,,2013-02-11 07:00:00,
2013-02-10 23:08:00,43.0,0.0,30.01,North,4,8.0,8.0,29,-99.99,,,-99.99,,2013-02-11 07:08:00,
2013-02-10 23:16:00,43.0,0.0,30.02,North,0,7.0,8.0,29,-99.99,,,-99.99,,2013-02-11 07:16:00,
2013-02-10 23:24:00,42.0,0.0,30.02,NNW,340,9.0,9.0,34,-99.99,,,-99.99,,2013-02-11 07:24:00,
2013-02-10 23:32:00,43.0,0.0,30.02,North,355,10.0,10.0,31,-99.99,,,-99.99,,2013-02-11 07:32:00,
2013-02-10 23:40:00,43.0,0.0,30.02,North,0,12.0,12.0,30,-99.99,,,-99.99,,2013-02-11 07:40:00,
2013-02-10 23:48:00,43.0,0.0,30.03,North,352,10.0,10.0,31,-99.99,,,-99.99,,2013-02-11 07:48:00,
2013-02-10 23:56:00,42.0,0.0,30.03,North,2,12.0,12.0,33,-99.99,,,-99.99,,2013-02-11 07:56:00,